sensor_id;sensor_type;location;lat;lon;timestamp;temperature;humidity
21883;DHT22;11106;47.864;13.054;2023-12-20T00:40:35;1.40;99.90
21883;DHT22;11106;47.864;13.054;2023-12-20T00:45:36;1.50;99.90
21883;DHT22;11106;47.864;13.054;2023-12-20T00:50:37;1.50;99.90
21883;DHT22;11106;47.864;13.054;2023-12-20T00:55:38;1.40;99.90
21883;DHT22;11106;47.864;13.054;2023-12-20T01:00:38;1.40;99.90
21883;DHT22;11106;47.864;13.054;2023-12-20T01:05:39;1.40;99.90
21883;DHT22;11106;47.864;13.054;2023-12-20T01:10:40;1.30;99.90
21883;DHT22;11106;47.864;13.054;2023-12-20T01:15:40;1.30;99.90
21883;DHT22;11106;47.864;13.054;2023-12-20T01:20:42;1.20;99.90
21883;DHT22;11106;47.864;13.054;2023-12-20T01:25:43;1.20;99.90
21883;DHT22;11106;47.864;13.054;2023-12-20T01:30:43;1.10;99.90
21883;DHT22;11106;47.864;13.054;2023-12-20T01:35:44;1.00;99.90
21883;DHT22;11106;47.864;13.054;2023-12-20T01:40:45;0.90;99.90
21883;DHT22;11106;47.864;13.054;2023-12-20T01:45:47;0.90;99.90
21883;DHT22;11106;47.864;13.054;2023-12-20T01:50:48;0.90;99.90
21883;DHT22;11106;47.864;13.054;2023-12-20T01:55:50;0.90;99.90
21883;DHT22;11106;47.864;13.054;2023-12-20T02:00:51;0.90;99.90
21883;DHT22;11106;47.864;13.054;2023-12-20T02:05:53;0.80;99.90
21883;DHT22;11106;47.864;13.054;2023-12-20T02:10:55;0.90;99.90
21883;DHT22;11106;47.864;13.054;2023-12-20T02:15:56;0.90;99.90
21883;DHT22;11106;47.864;13.054;2023-12-20T02:20:57;0.90;99.90
21883;DHT22;11106;47.864;13.054;2023-12-20T02:25:57;0.90;99.90
21883;DHT22;11106;47.864;13.054;2023-12-20T02:30:58;0.80;99.90
21883;DHT22;11106;47.864;13.054;2023-12-20T02:35:59;0.80;99.90
21883;DHT22;11106;47.864;13.054;2023-12-20T02:40:59;0.80;99.90
21883;DHT22;11106;47.864;13.054;2023-12-20T02:46:00;0.90;99.90
21883;DHT22;11106;47.864;13.054;2023-12-20T02:51:01;0.80;99.90
21883;DHT22;11106;47.864;13.054;2023-12-20T02:56:02;0.90;99.90
21883;DHT22;11106;47.864;13.054;2023-12-20T03:01:02;0.90;99.90
21883;DHT22;11106;47.864;13.054;2023-12-20T03:06:03;1.00;99.90
21883;DHT22;11106;47.864;13.054;2023-12-20T03:11:04;1.10;99.90
21883;DHT22;11106;47.864;13.054;2023-12-20T03:16:11;1.20;99.90
21883;DHT22;11106;47.864;13.054;2023-12-20T03:21:12;1.20;99.90
21883;DHT22;11106;47.864;13.054;2023-12-20T03:26:13;1.20;99.90
21883;DHT22;11106;47.864;13.054;2023-12-20T03:31:14;1.30;99.90
21883;DHT22;11106;47.864;13.054;2023-12-20T03:36:15;1.40;99.90
21883;DHT22;11106;47.864;13.054;2023-12-20T03:41:15;1.50;99.90
21883;DHT22;11106;47.864;13.054;2023-12-20T03:46:16;1.40;99.90
21883;DHT22;11106;47.864;13.054;2023-12-20T03:51:17;1.40;99.90
21883;DHT22;11106;47.864;13.054;2023-12-20T03:56:17;1.50;99.90
21883;DHT22;11106;47.864;13.054;2023-12-20T04:01:18;1.60;99.90
21883;DHT22;11106;47.864;13.054;2023-12-20T04:06:19;1.80;99.90
21883;DHT22;11106;47.864;13.054;2023-12-20T04:11:19;1.90;99.90
21883;DHT22;11106;47.864;13.054;2023-12-20T04:16:20;2.00;99.90
21883;DHT22;11106;47.864;13.054;2023-12-20T04:21:21;2.10;99.90
21883;DHT22;11106;47.864;13.054;2023-12-20T04:26:21;2.20;99.90
21883;DHT22;11106;47.864;13.054;2023-12-20T04:31:22;2.30;99.90
21883;DHT22;11106;47.864;13.054;2023-12-20T04:36:23;2.50;99.90
21883;DHT22;11106;47.864;13.054;2023-12-20T04:41:25;2.90;99.90
21883;DHT22;11106;47.864;13.054;2023-12-20T04:46:27;3.20;99.90
21883;DHT22;11106;47.864;13.054;2023-12-20T04:51:28;3.20;99.90
21883;DHT22;11106;47.864;13.054;2023-12-20T04:56:28;3.20;99.90
